createdAt,value
2022-12-05T09:47:41.030Z,62.03
2022-12-05T09:50:16.352Z,59.97
2022-12-05T09:52:57.470Z,60.63
2022-12-05T09:55:26.038Z,62.70
2022-12-05T09:57:58.322Z,74.13
2022-12-05T10:00:29.812Z,68.40
2022-12-05T10:35:19.774Z,66.87
2022-12-05T10:37:50.377Z,66.50
2022-12-05T10:40:18.884Z,63.90
2022-12-05T10:42:50.933Z,66.20
2022-12-05T10:45:21.986Z,63.27
2022-12-05T10:47:54.301Z,67.47
2022-12-05T10:50:29.327Z,65.43
2022-12-05T10:52:58.839Z,68.63
2022-12-05T10:55:31.763Z,66.47
2022-12-05T10:58:17.526Z,66.27
2022-12-05T11:03:30.500Z,64.23
2022-12-05T11:06:01.778Z,67.27
2022-12-05T11:09:02.502Z,66.07
2022-12-05T11:11:24.129Z,61.90
2022-12-05T11:13:57.655Z,58.30
2022-12-05T11:16:27.940Z,68.07
2022-12-05T11:18:58.004Z,62.80
2022-12-05T11:21:26.170Z,60.77
2022-12-05T11:23:54.268Z,61.57
2022-12-05T11:26:36.614Z,58.73
2022-12-05T11:29:04.968Z,61.00
2022-12-05T11:31:33.356Z,60.53
2022-12-05T11:34:20.335Z,60.00
2022-12-05T11:36:52.431Z,56.90
2022-12-05T11:39:20.622Z,65.23
2022-12-05T11:42:17.895Z,60.97
2022-12-05T11:45:13.971Z,60.77
2022-12-05T11:47:56.428Z,58.17
2022-12-05T11:50:40.436Z,59.07
2022-12-05T11:53:26.199Z,55.53
2022-12-05T11:55:59.172Z,53.83
2022-12-05T11:58:48.862Z,53.07
2022-12-05T12:01:27.921Z,58.33
2022-12-05T12:04:43.937Z,51.97
2022-12-05T12:07:46.249Z,51.33
2022-12-05T12:10:23.706Z,52.83
2022-12-05T12:13:03.746Z,48.70
2022-12-05T12:15:47.696Z,53.30
2022-12-05T12:18:25.766Z,51.70
2022-12-05T12:21:06.030Z,53.30
2022-12-05T12:23:47.100Z,52.97
2022-12-05T12:26:21.526Z,51.90
2022-12-05T12:29:07.488Z,53.53
2022-12-05T12:31:51.693Z,49.70
2022-12-05T12:34:49.792Z,51.77
2022-12-05T12:37:28.916Z,49.43
2022-12-05T12:40:04.998Z,51.50
2022-12-05T12:42:42.097Z,49.23
2022-12-05T12:45:52.921Z,52.93
2022-12-05T12:48:39.256Z,47.47
2022-12-05T12:51:12.995Z,51.43
2022-12-05T13:02:39.358Z,49.47
2022-12-05T13:05:16.888Z,46.03
2022-12-05T13:07:52.617Z,51.87
2022-12-05T13:10:28.363Z,45.37
2022-12-05T13:12:58.937Z,50.17
2022-12-05T13:15:35.692Z,44.07
2022-12-05T13:18:06.634Z,48.77
2022-12-05T13:20:36.635Z,45.97
